Solitude, Utah
Current Conditions -  °F | °C
As of 7:53 AM on Thursday 23 Oct 2014 (Local Time) from KSLC Reporting Station
Broken Clouds Broken Clouds  
Wind Chill: 42°   Ceiling: 24000
Heat Index: 47°   Visibility: 10mi
Dew Point: 34°   Wind: 10mph
Humidity: 61%   Direction: 120°ESE
Pressure: 30.12"   Gusts: NA
Location:  40.6239°N, 111.817°W
Report Text: KSLC 231353Z 12009KT 10SM SCT170 BKN240 08/01 A3012 RMK AO2 SLP183 ACSL DSNT NE AND SE T00830011
Loading
Personal Weather Stations






























Interactive Weather Map
Tropical Storm Tracking
New forecast layout! Learn more

10-Day Weather Forecast

Advertisements
Track Severe Weather on mobile